Dale, Texas
Current Conditions -  °F | °C
As of 5:50 PM on Sunday 23 Nov 2014 (Local Time) from KHYI Reporting Station
Clear Clear  
Wind Chill: 68°   Ceiling: Unl
Heat Index: 68°   Visibility: 10mi
Dew Point: 46°   Wind: 9mph
Humidity: 46%   Direction: 220°SW
Pressure: 29.59"   Gusts: NA
Location:  29.93°N, 97.57°W
Report Text: KHYI 232350Z 22008KT 10SM CLR 20/08 A2959
Loading
Personal Weather Stations






























Interactive Weather Map New forecast layout! Learn more

10-Day Weather Forecast

Advertisements
Track Severe Weather on mobile